Time;durP1;ratioP1;P1;durP2;ratioP2;P2;SDS_P1;SDS_P2;PMS_P1;PMS_P2;Temp;Humidity;BMP_temperature;BMP_pressure;BME280_temperature;BME280_humidity;BME280_pressure;Samples;Min_cycle;Max_cycle;Signal;HPM_P1;HPM_P2
2022/03/04 00:01:48;;;;;;;18.02;12.52;;;;;;;1.21;58.01;100686.06;5020907;28;20061;-83
2022/03/04 00:04:16;;;;;;;18.67;11.82;;;;;;;1.20;58.12;100684.41;5028515;28;20416;-83
2022/03/04 00:06:43;;;;;;;16.60;11.80;;;;;;;1.20;58.17;100689.91;5024249;28;20429;-83
2022/03/04 00:09:12;;;;;;;16.15;10.80;;;;;;;1.13;58.52;100691.94;5023068;28;20104;-83
2022/03/04 00:11:40;;;;;;;15.47;11.23;;;;;;;1.13;57.82;100697.44;5033581;28;20056;-82
2022/03/04 00:14:08;;;;;;;16.58;11.70;;;;;;;1.08;58.41;100700.09;5035041;28;20053;-83
2022/03/04 00:16:36;;;;;;;17.30;11.07;;;;;;;1.05;58.15;100695.13;5025811;28;20050;-83
2022/03/04 00:19:10;;;;;;;17.48;11.57;;;;;;;1.05;58.31;100700.59;5035259;28;20060;-82
2022/03/04 00:21:42;;;;;;;15.75;11.07;;;;;;;1.01;58.76;100702.16;5030542;28;20049;-82
2022/03/04 00:24:10;;;;;;;18.17;10.45;;;;;;;0.99;58.27;100712.56;5034390;28;20049;-82
2022/03/04 00:26:40;;;;;;;16.98;12.00;;;;;;;0.91;58.20;100710.19;5038814;28;20053;-80
2022/03/04 00:29:08;;;;;;;18.48;11.10;;;;;;;0.87;59.03;100714.50;5029883;28;20490;-81
2022/03/04 00:31:37;;;;;;;16.45;10.68;;;;;;;0.85;59.01;100711.16;5039976;28;20417;-82
2022/03/04 00:34:06;;;;;;;16.17;11.65;;;;;;;0.81;59.27;100717.13;5037737;28;20413;-82
2022/03/04 00:36:33;;;;;;;20.63;11.30;;;;;;;0.80;58.76;100715.47;5038017;28;20057;-82
2022/03/04 00:39:01;;;;;;;17.35;10.93;;;;;;;0.81;59.22;100719.03;5032254;28;20053;-82
2022/03/04 00:41:28;;;;;;;18.27;11.82;;;;;;;0.84;59.04;100709.50;5027274;28;20049;-82
2022/03/04 00:43:57;;;;;;;16.70;11.68;;;;;;;0.78;59.13;100712.16;5029373;28;20489;-81
2022/03/04 00:46:25;;;;;;;18.83;11.57;;;;;;;0.78;59.14;100716.81;5027410;28;20052;-83
2022/03/04 00:48:53;;;;;;;19.35;11.90;;;;;;;0.78;58.68;100714.88;5037520;28;20057;-82
2022/03/04 00:51:21;;;;;;;18.60;12.60;;;;;;;0.74;58.79;100704.66;5038822;28;20516;-83
2022/03/04 00:53:49;;;;;;;18.30;11.93;;;;;;;0.69;59.50;100713.59;5037314;28;20489;-82
2022/03/04 00:56:16;;;;;;;18.23;12.32;;;;;;;0.70;59.53;100722.66;5036093;28;20494;-83
2022/03/04 00:58:43;;;;;;;17.40;11.73;;;;;;;0.71;59.09;100719.66;5037277;28;20057;-82
2022/03/04 01:01:12;;;;;;;19.15;12.23;;;;;;;0.72;59.20;100718.59;5036525;28;20052;-82
2022/03/04 01:03:40;;;;;;;17.38;11.13;;;;;;;0.68;59.37;100713.84;5039124;28;20136;-82
2022/03/04 01:06:08;;;;;;;17.05;10.77;;;;;;;0.67;59.65;100720.38;5037068;28;20049;-82
2022/03/04 01:08:35;;;;;;;17.13;11.68;;;;;;;0.59;59.24;100716.13;5018162;28;20062;-81
2022/03/04 01:11:03;;;;;;;16.88;11.43;;;;;;;0.52;59.45;100716.25;5033040;28;20060;-82
2022/03/04 01:13:30;;;;;;;17.75;12.20;;;;;;;0.50;59.79;100712.09;5039099;28;20061;-82
2022/03/04 01:15:57;;;;;;;17.55;12.07;;;;;;;0.48;60.24;100716.97;5031970;28;20050;-82
2022/03/04 01:18:26;;;;;;;18.00;11.38;;;;;;;0.48;59.90;100715.06;5035860;28;20053;-82
2022/03/04 01:20:54;;;;;;;16.92;11.35;;;;;;;0.48;60.11;100720.53;5038310;28;20053;-82
2022/03/04 01:23:21;;;;;;;18.10;12.23;;;;;;;0.47;60.10;100715.34;5037977;28;20049;-82
2022/03/04 01:25:52;;;;;;;18.73;11.68;;;;;;;0.44;60.18;100713.06;5032454;28;20060;-81
2022/03/04 01:28:20;;;;;;;18.00;11.77;;;;;;;0.39;60.71;100724.75;5033093;28;20053;-81
2022/03/04 01:30:47;;;;;;;17.58;11.75;;;;;;;0.38;60.32;100721.19;5039854;28;20064;-82
2022/03/04 01:33:15;;;;;;;18.52;11.98;;;;;;;0.39;60.34;100720.09;5039608;28;20382;-82
2022/03/04 01:35:44;;;;;;;15.40;11.10;;;;;;;0.40;60.37;100719.03;5038785;28;20058;-83
2022/03/04 01:38:12;;;;;;;19.15;11.65;;;;;;;0.39;60.17;100714.59;5038288;28;20466;-83
2022/03/04 01:40:39;;;;;;;18.65;12.23;;;;;;;0.37;60.68;100716.75;5037812;28;20056;-82
2022/03/04 01:43:07;;;;;;;20.65;12.13;;;;;;;0.37;60.63;100715.94;5038511;28;20061;-83
2022/03/04 01:45:34;;;;;;;17.80;10.60;;;;;;;0.34;61.05;100717.25;5039553;28;20054;-82
2022/03/04 01:48:01;;;;;;;18.13;11.13;;;;;;;0.35;60.64;100713.44;5021299;28;20057;-83
2022/03/04 01:50:29;;;;;;;18.50;12.20;;;;;;;0.31;60.67;100711.41;5038787;28;20057;-82
2022/03/04 01:52:58;;;;;;;16.80;11.38;;;;;;;0.28;60.90;100718.22;5042275;28;20061;-83
2022/03/04 01:55:25;;;;;;;17.23;11.23;;;;;;;0.31;60.60;100716.88;5042331;28;20064;-82
2022/03/04 01:57:52;;;;;;;16.65;10.90;;;;;;;0.31;60.45;100720.47;5035925;28;20060;-83
2022/03/04 02:00:20;;;;;;;16.27;10.27;;;;;;;0.30;60.50;100710.59;5041914;28;20057;-83
2022/03/04 02:02:47;;;;;;;16.92;10.55;;;;;;;0.28;60.57;100711.91;5022824;28;20042;-83
2022/03/04 02:05:16;;;;;;;17.00;10.73;;;;;;;0.27;60.29;100716.53;5025928;28;20056;-83
2022/03/04 02:07:43;;;;;;;18.75;11.48;;;;;;;0.27;60.52;100716.53;5029906;28;20057;-83
2022/03/04 02:10:13;;;;;;;17.98;11.27;;;;;;;0.25;60.77;100713.19;5022544;28;20046;-84
2022/03/04 02:12:40;;;;;;;19.25;13.43;;;;;;;0.22;60.76;100710.94;5036963;28;20056;-84
2022/03/04 02:15:09;;;;;;;19.20;11.52;;;;;;;0.25;60.55;100717.84;5042285;28;20056;-82
2022/03/04 02:17:37;;;;;;;21.20;13.38;;;;;;;0.23;60.85;100720.81;5022536;28;20042;-81
2022/03/04 02:20:06;;;;;;;20.00;12.95;;;;;;;0.21;60.83;100720.25;5023742;28;20049;-83
2022/03/04 02:22:35;;;;;;;18.95;12.63;;;;;;;0.24;61.19;100719.75;5041578;28;20457;-83
2022/03/04 02:25:05;;;;;;;20.15;13.20;;;;;;;0.23;61.07;100715.34;5037353;28;20053;-82
2022/03/04 02:27:32;;;;;;;21.02;12.85;;;;;;;0.25;61.01;100720.59;5039318;28;20406;-82
2022/03/04 02:30:00;;;;;;;19.23;12.32;;;;;;;0.23;60.60;100715.34;5028845;28;20054;-83
2022/03/04 02:32:27;;;;;;;17.27;11.63;;;;;;;0.24;60.83;100719.75;5031553;28;20667;-82
2022/03/04 02:34:54;;;;;;;19.23;12.25;;;;;;;0.24;60.74;100711.53;5034195;28;20046;-82
2022/03/04 02:37:22;;;;;;;20.88;12.77;;;;;;;0.24;60.83;100710.72;5030761;28;20045;-83
2022/03/04 02:39:51;;;;;;;19.08;11.85;;;;;;;0.17;60.97;100708.13;5029348;28;20053;-83
2022/03/04 02:42:18;;;;;;;20.30;12.57;;;;;;;0.13;60.93;100702.28;5031775;28;20057;-83
2022/03/04 02:44:46;;;;;;;19.05;12.60;;;;;;;0.05;61.30;100697.16;5033238;28;20068;-83
2022/03/04 02:47:13;;;;;;;18.45;11.25;;;;;;;0.07;61.47;100702.41;5029269;28;20049;-83
2022/03/04 02:49:40;;;;;;;17.08;11.77;;;;;;;0.06;61.77;100703.47;5029624;28;20069;-83
2022/03/04 02:52:08;;;;;;;17.15;11.82;;;;;;;0.03;61.61;100698.47;5035065;28;20053;-82
2022/03/04 02:54:35;;;;;;;17.48;12.25;;;;;;;0.01;61.86;100693.22;5030097;28;20053;-84
2022/03/04 02:57:04;;;;;;;18.83;11.57;;;;;;;0.02;61.66;100696.78;5026962;28;20053;-84
2022/03/04 02:59:32;;;;;;;17.43;11.40;;;;;;;0.03;61.43;100706.69;5027287;28;20060;-83
2022/03/04 03:01:59;;;;;;;21.55;12.43;;;;;;;0.02;61.41;100710.47;5034193;28;20064;-83
2022/03/04 03:04:26;;;;;;;17.30;10.68;;;;;;;-0.06;61.63;100712.53;5027212;28;20046;-83
2022/03/04 03:06:57;;;;;;;17.98;11.35;;;;;;;-0.07;61.55;100710.84;5036819;28;20041;-83
2022/03/04 03:09:25;;;;;;;18.08;11.65;;;;;;;-0.08;61.46;100703.72;5041523;28;20059;-83
2022/03/04 03:11:52;;;;;;;17.17;11.35;;;;;;;-0.09;61.66;100706.69;5041162;28;20401;-84
2022/03/04 03:14:21;;;;;;;17.65;10.98;;;;;;;-0.14;61.76;100715.59;5034090;28;20064;-83
2022/03/04 03:16:48;;;;;;;17.02;11.55;;;;;;;-0.17;61.70;100707.84;5027550;28;20061;-83
2022/03/04 03:19:16;;;;;;;17.83;11.25;;;;;;;-0.21;62.02;100704.78;5033174;28;20065;-83
2022/03/04 03:21:44;;;;;;;18.70;12.05;;;;;;;-0.24;62.05;100704.41;5035394;28;20045;-84
2022/03/04 03:24:11;;;;;;;17.10;11.10;;;;;;;-0.27;62.21;100710.38;5029486;28;20065;-84
2022/03/04 03:26:38;;;;;;;16.90;10.32;;;;;;;-0.26;62.10;100709.28;5031174;28;20422;-84
2022/03/04 03:29:09;;;;;;;19.35;12.02;;;;;;;-0.28;61.92;100706.78;5028005;28;20064;-83
2022/03/04 03:31:39;;;;;;;18.30;11.73;;;;;;;-0.29;61.64;100702.38;5038528;28;20060;-82
2022/03/04 03:34:06;;;;;;;17.27;11.85;;;;;;;-0.31;61.84;100698.22;5023682;28;20069;-82
2022/03/04 03:36:33;;;;;;;19.33;11.60;;;;;;;-0.35;62.00;100697.03;5025227;28;20395;-83
2022/03/04 03:39:01;;;;;;;18.83;11.63;;;;;;;-0.36;61.88;100698.09;5023107;28;20060;-83
2022/03/04 03:41:28;;;;;;;19.60;12.18;;;;;;;-0.38;62.04;100702.97;5019760;28;20053;-83
2022/03/04 03:43:56;;;;;;;20.13;12.32;;;;;;;-0.45;62.64;100711.28;5022035;28;20049;-82
2022/03/04 03:46:23;;;;;;;18.88;11.55;;;;;;;-0.49;61.89;100708.19;5034159;28;20054;-82
2022/03/04 03:48:52;;;;;;;16.33;10.68;;;;;;;-0.48;62.15;100709.03;5019582;28;20420;-81
2022/03/04 03:51:19;;;;;;;18.48;11.68;;;;;;;-0.50;62.32;100712.00;5025815;28;20065;-81
2022/03/04 03:53:55;;;;;;;18.83;11.57;;;;;;;-0.47;61.74;100711.53;5039648;28;20045;-81
2022/03/04 03:56:22;;;;;;;18.45;11.25;;;;;;;-0.47;61.78;100710.69;5040450;28;20045;-81
2022/03/04 03:58:50;;;;;;;19.45;12.88;;;;;;;-0.51;61.92;100713.06;5038896;28;20053;-81
2022/03/04 04:01:17;;;;;;;19.58;12.55;;;;;;;-0.53;62.30;100711.63;5022232;28;20058;-81
2022/03/04 04:03:44;;;;;;;20.00;11.65;;;;;;;-0.56;62.51;100723.88;5024082;28;20050;-81
2022/03/04 04:06:14;;;;;;;18.63;11.85;;;;;;;-0.58;62.22;100726.03;5038348;28;20057;-80
2022/03/04 04:08:41;;;;;;;19.40;12.15;;;;;;;-0.60;62.24;100730.88;5037839;28;20053;-80
2022/03/04 04:11:09;;;;;;;18.90;11.90;;;;;;;-0.60;62.50;100738.28;5035374;28;20049;-83
2022/03/04 04:13:36;;;;;;;21.55;12.48;;;;;;;-0.59;62.37;100739.94;5031706;28;20068;-83
2022/03/04 04:16:04;;;;;;;19.70;12.43;;;;;;;-0.62;62.44;100736.59;5036561;28;20056;-82
2022/03/04 04:18:32;;;;;;;16.70;11.38;;;;;;;-0.65;62.91;100739.81;5037270;28;20049;-83
2022/03/04 04:20:59;;;;;;;21.00;13.00;;;;;;;-0.64;62.69;100740.63;5029381;28;20417;-81
2022/03/04 04:23:28;;;;;;;19.65;12.65;;;;;;;-0.64;62.47;100732.44;5023174;28;20054;-82
2022/03/04 04:25:55;;;;;;;19.75;13.07;;;;;;;-0.68;62.69;100739.44;5038541;28;20060;-82
2022/03/04 04:28:25;;;;;;;18.80;12.27;;;;;;;-0.69;62.96;100744.06;5038853;28;20049;-82
2022/03/04 04:30:52;;;;;;;20.25;12.68;;;;;;;-0.69;62.95;100735.88;5037909;28;20060;-81
2022/03/04 04:33:20;;;;;;;24.20;15.40;;;;;;;-0.68;62.85;100736.69;5021441;28;20053;-81
2022/03/04 04:35:47;;;;;;;20.10;12.73;;;;;;;-0.73;62.85;100736.56;5020022;28;20442;-82
2022/03/04 04:38:15;;;;;;;22.17;13.75;;;;;;;-0.71;62.86;100742.66;5038116;28;20053;-82
2022/03/04 04:40:44;;;;;;;21.60;13.00;;;;;;;-0.72;62.83;100740.97;5023874;28;20056;-81
2022/03/04 04:43:11;;;;;;;20.40;12.93;;;;;;;-0.75;62.88;100735.97;5027258;28;20073;-82
2022/03/04 04:45:39;;;;;;;19.75;12.88;;;;;;;-0.74;63.21;100740.34;5036510;28;20057;-82
2022/03/04 04:48:06;;;;;;;20.38;12.18;;;;;;;-0.77;63.03;100740.84;5022488;28;20050;-82
2022/03/04 04:50:33;;;;;;;19.27;13.30;;;;;;;-0.76;62.96;100737.03;5027307;28;20411;-82
2022/03/04 04:53:03;;;;;;;19.10;13.05;;;;;;;-0.78;63.34;100736.41;5034314;28;20437;-81
2022/03/04 04:55:31;;;;;;;22.98;12.65;;;;;;;-0.84;63.09;100733.56;5026748;28;20073;-82
2022/03/04 04:57:59;;;;;;;23.25;14.10;;;;;;;-0.87;63.01;100723.06;5031094;28;20069;-82
2022/03/04 05:00:27;;;;;;;20.88;13.23;;;;;;;-0.84;62.82;100724.50;5027695;28;20050;-81
2022/03/04 05:02:54;;;;;;;21.77;13.13;;;;;;;-0.85;62.80;100728.31;5030101;28;20054;-82
2022/03/04 05:05:22;;;;;;;20.88;13.77;;;;;;;-0.87;63.20;100733.19;5038248;28;20057;-82
2022/03/04 05:07:50;;;;;;;21.55;12.85;;;;;;;-0.88;63.13;100732.34;5037667;28;20049;-79
2022/03/04 05:10:17;;;;;;;23.00;13.40;;;;;;;-0.88;63.02;100729.63;5035316;28;20058;-81
2022/03/04 05:12:45;;;;;;;21.17;13.77;;;;;;;-0.93;63.44;100739.56;5019129;28;20060;-81
2022/03/04 05:15:16;;;;;;;21.58;13.13;;;;;;;-0.95;63.47;100734.34;5019878;28;20061;-80
2022/03/04 05:17:44;;;;;;;23.45;14.20;;;;;;;-0.94;63.60;100744.22;5022539;28;20053;-80
2022/03/04 05:20:12;;;;;;;24.13;14.15;;;;;;;-0.97;63.89;100743.84;5020124;28;20050;-81
2022/03/04 05:22:39;;;;;;;20.63;13.35;;;;;;;-0.95;63.57;100742.53;5032378;28;20045;-82
2022/03/04 05:25:08;;;;;;;21.60;13.48;;;;;;;-0.94;63.59;100744.22;5031043;28;20065;-82
2022/03/04 05:27:35;;;;;;;22.45;13.73;;;;;;;-0.97;63.58;100741.94;5042825;28;20049;-82
2022/03/04 05:30:02;;;;;;;22.42;12.70;;;;;;;-1.03;65.00;100737.38;5043771;28;20082;-82
2022/03/04 05:32:31;;;;;;;25.45;14.88;;;;;;;-1.02;64.69;100744.53;5039944;28;20056;-81
2022/03/04 05:34:59;;;;;;;22.10;13.43;;;;;;;-1.02;64.30;100745.38;5042833;28;20053;-82
2022/03/04 05:37:26;;;;;;;21.15;13.38;;;;;;;-1.03;64.10;100746.44;5042707;28;20429;-81
2022/03/04 05:39:53;;;;;;;23.40;14.20;;;;;;;-1.06;63.81;100746.88;5041558;28;20053;-81
2022/03/04 05:42:24;;;;;;;23.95;14.93;;;;;;;-1.08;63.93;100748.19;5043959;28;20061;-82
2022/03/04 05:44:51;;;;;;;22.90;13.35;;;;;;;-1.09;63.94;100757.44;5037835;28;20057;-82
2022/03/04 05:47:19;;;;;;;22.73;13.57;;;;;;;-1.05;63.83;100750.44;5042158;28;20067;-82
2022/03/04 05:49:47;;;;;;;21.73;13.93;;;;;;;-1.03;63.65;100751.06;5025030;28;20080;-82
2022/03/04 05:52:15;;;;;;;20.63;13.43;;;;;;;-1.03;63.61;100756.53;5041936;28;20410;-82
2022/03/04 05:54:42;;;;;;;24.73;15.00;;;;;;;-1.11;63.59;100756.88;5039224;28;20056;-82
2022/03/04 05:57:10;;;;;;;20.95;13.35;;;;;;;-1.13;63.90;100759.00;5037838;28;20041;-82
2022/03/04 05:59:37;;;;;;;21.05;13.60;;;;;;;-1.11;64.14;100767.81;5035493;28;20049;-81
2022/03/04 06:02:05;;;;;;;20.45;13.23;;;;;;;-1.10;63.65;100766.72;5034161;28;20049;-81
2022/03/04 06:04:33;;;;;;;21.75;13.88;;;;;;;-1.07;63.30;100766.25;5033921;28;20057;-81
2022/03/04 06:07:01;;;;;;;20.60;12.95;;;;;;;-1.08;63.50;100761.84;5039550;28;20409;-81
2022/03/04 06:09:29;;;;;;;21.27;13.30;;;;;;;-1.12;63.47;100769.69;5039561;28;20050;-81
2022/03/04 06:11:56;;;;;;;21.83;13.38;;;;;;;-1.16;63.82;100778.56;5029949;28;20053;-81
2022/03/04 06:14:24;;;;;;;22.63;14.35;;;;;;;-1.19;63.80;100779.03;5035534;28;20117;-81
2022/03/04 06:16:51;;;;;;;22.27;13.80;;;;;;;-1.20;63.89;100777.34;5020978;28;20061;-81
2022/03/04 06:19:19;;;;;;;19.48;12.45;;;;;;;-1.20;64.11;100788.28;5035833;28;20053;-81
2022/03/04 06:21:46;;;;;;;22.38;12.57;;;;;;;-1.21;64.03;100783.91;5039544;28;20061;-82
2022/03/04 06:24:15;;;;;;;22.50;14.35;;;;;;;-1.18;63.47;100784.25;5037594;28;20072;-81
2022/03/04 06:26:42;;;;;;;22.30;14.15;;;;;;;-1.19;63.88;100789.97;5033816;28;20049;-82
2022/03/04 06:29:09;;;;;;;22.15;13.32;;;;;;;-1.21;63.71;100787.47;5039635;28;20511;-82
2022/03/04 06:31:37;;;;;;;21.73;13.30;;;;;;;-1.13;63.47;100784.44;5040407;28;20045;-82
2022/03/04 06:34:04;;;;;;;23.88;14.48;;;;;;;-1.08;63.59;100792.75;5031694;28;20054;-81
2022/03/04 06:36:32;;;;;;;22.05;13.38;;;;;;;-1.01;63.73;100792.66;5026395;28;20117;-81
2022/03/04 06:38:59;;;;;;;22.95;13.30;;;;;;;-0.94;63.56;100790.69;5033141;28;20057;-81
2022/03/04 06:41:28;;;;;;;21.42;13.27;;;;;;;-0.80;63.00;100794.06;5039154;28;20061;-81
2022/03/04 06:43:55;;;;;;;22.55;13.45;;;;;;;0.05;61.24;100794.91;5039344;28;20057;-81
2022/03/04 06:46:23;;;;;;;21.02;13.27;;;;;;;0.70;59.10;100797.50;5037773;28;20060;-80
2022/03/04 06:48:50;;;;;;;20.10;12.15;;;;;;;1.22;58.19;100793.91;5039489;28;20054;-80
2022/03/04 06:51:18;;;;;;;19.55;11.55;;;;;;;2.33;56.29;100787.03;5036392;28;20049;-82
2022/03/04 06:53:48;;;;;;;16.88;11.23;;;;;;;3.44;53.90;100780.47;5038788;28;20041;-81
2022/03/04 06:56:16;;;;;;;;;;;;;;;4.35;50.53;100776.03;5020528;28;20061;-82
2022/03/04 06:58:45;;;;;;;16.85;10.85;;;;;;;5.34;49.88;100787.28;5036535;28;19921;-81
2022/03/04 07:01:12;;;;;;;16.67;11.18;;;;;;;6.40;47.67;100785.72;5038685;28;20057;-81
2022/03/04 07:03:39;;;;;;;17.40;11.48;;;;;;;7.21;45.11;100789.34;5039835;28;20060;-81
2022/03/04 07:06:07;;;;;;;15.48;11.13;;;;;;;8.04;42.52;100796.06;5036447;28;20081;-82
2022/03/04 07:08:37;;;;;;;15.00;11.27;;;;;;;8.92;40.60;100796.91;5033939;28;20053;-82
2022/03/04 07:11:05;;;;;;;15.27;11.88;;;;;;;9.77;38.71;100796.38;5041654;28;20060;-82
2022/03/04 07:13:35;;;;;;;17.60;12.63;;;;;;;10.50;37.05;100798.53;5045027;28;20052;-82
2022/03/04 07:16:05;;;;;;;14.77;12.25;;;;;;;11.34;35.03;100804.97;5032462;28;20053;-81
2022/03/04 07:18:34;;;;;;;;;;;;;;;11.65;33.00;100804.28;5043527;28;20437;-82
2022/03/04 07:21:04;;;;;;;15.32;12.40;;;;;;;12.43;34.00;100815.28;5026669;28;19954;-83
2022/03/04 07:23:35;;;;;;;14.05;12.23;;;;;;;13.21;32.01;100807.31;5038937;28;20049;-83
2022/03/04 07:26:08;;;;;;;13.70;11.07;;;;;;;13.87;31.12;100812.09;5041777;28;20060;-80
2022/03/04 07:28:35;;;;;;;13.80;11.27;;;;;;;14.48;29.75;100812.03;5039333;28;20502;-81
2022/03/04 07:31:04;;;;;;;13.27;11.48;;;;;;;15.12;28.71;100814.00;5041717;28;20045;-80
2022/03/04 07:33:33;;;;;;;15.50;12.48;;;;;;;15.61;27.89;100812.41;5034539;28;20046;-80
2022/03/04 07:36:01;;;;;;;14.63;11.70;;;;;;;16.25;27.28;100813.28;5034791;28;20050;-80
2022/03/04 07:38:31;;;;;;;15.02;12.18;;;;;;;16.78;26.41;100805.97;5040962;28;20246;-80
2022/03/04 07:41:00;;;;;;;13.32;11.77;;;;;;;17.41;25.33;100816.94;5043746;28;20064;-82
2022/03/04 07:43:30;;;;;;;13.13;11.73;;;;;;;18.00;24.81;100812.78;5039400;28;20056;-85
2022/03/04 07:45:58;;;;;;;14.38;12.07;;;;;;;18.53;23.90;100803.41;5040021;28;20049;-83
2022/03/04 07:48:27;;;;;;;13.55;12.15;;;;;;;19.00;23.08;100814.81;5039144;28;20057;-84
2022/03/04 07:50:54;;;;;;;;;;;;;;;19.02;22.10;100808.78;5041025;28;20056;-84
2022/03/04 07:53:21;;;;;;;14.20;12.25;;;;;;;19.87;22.28;100818.53;5037524;28;19921;-84
2022/03/04 07:55:49;;;;;;;14.93;12.70;;;;;;;20.43;21.51;100807.97;5039383;28;20056;-84
2022/03/04 07:58:16;;;;;;;14.32;12.90;;;;;;;20.86;20.50;100812.47;5042083;28;20772;-80
2022/03/04 08:00:43;;;;;;;14.80;12.95;;;;;;;21.35;20.11;100819.38;5042146;28;20057;-81
2022/03/04 08:03:14;;;;;;;14.15;12.43;;;;;;;21.58;19.90;100816.53;5040950;28;20478;-81
2022/03/04 08:05:43;;;;;;;15.05;12.85;;;;;;;22.08;19.63;100805.91;5035418;28;20060;-82
2022/03/04 08:08:12;;;;;;;;;;;;;;;21.74;19.31;100807.06;5037805;28;20056;-84
2022/03/04 08:10:42;;;;;;;13.70;12.27;;;;;;;22.19;19.71;100800.38;5036892;28;19925;-83
2022/03/04 08:13:09;;;;;;;15.10;13.50;;;;;;;22.50;18.89;100810.50;5039906;28;20057;-84
2022/03/04 08:15:41;;;;;;;14.77;12.52;;;;;;;23.47;17.84;100808.59;5037834;28;20056;-83
2022/03/04 08:18:11;;;;;;;16.52;12.70;;;;;;;23.78;17.92;100812.09;5036979;28;20421;-84
2022/03/04 08:20:55;;;;;;;14.75;12.50;;;;;;;24.36;16.83;100809.53;5040578;28;20045;-85
2022/03/04 08:23:25;;;;;;;14.75;13.15;;;;;;;24.85;16.99;100805.22;5038020;28;20060;-84
2022/03/04 08:25:52;;;;;;;15.23;13.07;;;;;;;25.36;16.01;100815.47;5038914;28;20041;-82
2022/03/04 08:28:20;;;;;;;16.23;14.07;;;;;;;25.24;16.92;100821.56;5038380;28;20049;-83
2022/03/04 08:30:47;;;;;;;14.60;13.10;;;;;;;25.74;16.39;100812.97;5037529;28;20053;-82
2022/03/04 08:33:15;;;;;;;15.57;14.00;;;;;;;25.97;16.36;100808.88;5036549;28;20413;-84
2022/03/04 08:35:44;;;;;;;14.87;13.37;;;;;;;26.38;15.57;100814.03;5036141;28;20045;-84
2022/03/04 08:38:11;;;;;;;13.68;12.23;;;;;;;26.53;15.73;100813.53;5038311;28;20051;-83
2022/03/04 08:40:41;;;;;;;14.15;12.73;;;;;;;27.16;15.49;100809.91;5038640;28;20073;-84
2022/03/04 08:43:12;;;;;;;13.25;11.88;;;;;;;27.61;14.89;100817.69;5037462;28;20057;-84
2022/03/04 08:45:42;;;;;;;15.35;12.52;;;;;;;27.86;14.34;100808.88;5044361;28;20059;-84
2022/03/04 08:48:12;;;;;;;13.75;12.30;;;;;;;28.22;14.40;100806.41;5025476;28;20049;-84
2022/03/04 08:50:41;;;;;;;13.10;11.68;;;;;;;28.26;14.37;100801.44;5035820;28;20068;-85
2022/03/04 08:53:10;;;;;;;13.05;11.75;;;;;;;28.50;14.05;100793.00;5038515;28;20661;-86
2022/03/04 08:55:41;;;;;;;12.40;11.18;;;;;;;28.95;13.83;100798.47;5036316;28;20056;-85
2022/03/04 08:58:08;;;;;;;12.88;11.68;;;;;;;29.20;13.22;100794.41;5036542;28;20057;-86
2022/03/04 09:00:36;;;;;;;14.23;12.75;;;;;;;29.44;13.71;100795.22;5035130;28;20046;-84
2022/03/04 09:03:04;;;;;;;13.63;12.32;;;;;;;29.35;13.35;100795.78;5036460;28;20595;-83
2022/03/04 09:05:31;;;;;;;14.57;12.30;;;;;;;29.28;13.93;100790.19;5032653;28;20053;-83
2022/03/04 09:07:59;;;;;;;13.07;11.77;;;;;;;29.20;13.66;100791.53;5034857;28;20053;-83
2022/03/04 09:10:28;;;;;;;14.20;12.73;;;;;;;29.74;13.02;100794.28;5035011;28;20045;-83
2022/03/04 09:12:56;;;;;;;13.30;12.07;;;;;;;29.22;13.92;100786.19;5035081;28;20060;-83
2022/03/04 09:15:23;;;;;;;13.57;12.27;;;;;;;29.50;14.14;100785.69;5034519;28;20045;-83
2022/03/04 09:17:51;;;;;;;13.15;11.75;;;;;;;29.63;13.31;100787.91;5035400;28;20057;-84
2022/03/04 09:20:19;;;;;;;13.63;12.43;;;;;;;29.74;13.69;100792.22;5034811;28;20049;-84
2022/03/04 09:22:47;;;;;;;12.82;11.63;;;;;;;29.95;13.19;100787.31;5028201;28;20068;-84
2022/03/04 09:25:15;;;;;;;13.27;11.98;;;;;;;29.95;13.38;100790.19;5035285;28;20061;-83
2022/03/04 09:27:46;;;;;;;13.23;11.83;;;;;;;29.37;13.25;100790.41;5040821;28;20056;-84
2022/03/04 09:30:14;;;;;;;11.90;10.70;;;;;;;29.89;13.24;100795.63;5041392;28;20056;-84
2022/03/04 09:32:41;;;;;;;13.23;11.90;;;;;;;30.03;13.21;100793.72;5047988;28;20050;-84
2022/03/04 09:35:09;;;;;;;12.98;11.68;;;;;;;30.13;12.78;100786.94;5036155;28;20056;-84
2022/03/04 09:37:37;;;;;;;13.10;11.80;;;;;;;30.42;12.67;100790.03;5036875;28;20049;-82
2022/03/04 09:40:07;;;;;;;12.75;11.50;;;;;;;30.69;12.28;100780.41;5035736;28;20058;-83
2022/03/04 09:42:34;;;;;;;12.93;11.15;;;;;;;30.95;11.67;100790.06;5035894;28;20049;-84
2022/03/04 09:45:04;;;;;;;11.85;10.73;;;;;;;31.33;11.94;100786.66;5037303;28;20057;-82
2022/03/04 09:47:32;;;;;;;12.45;10.73;;;;;;;31.41;11.54;100793.84;5051705;28;20053;-83
2022/03/04 09:50:01;;;;;;;14.30;11.38;;;;;;;31.61;11.18;100787.22;5022285;28;20060;-85
2022/03/04 09:52:30;;;;;;;12.02;10.82;;;;;;;31.93;11.29;100783.44;5034796;28;20045;-82
2022/03/04 09:54:59;;;;;;;10.73;9.73;;;;;;;31.93;11.04;100783.44;5033808;28;20091;-82
2022/03/04 09:57:27;;;;;;;11.30;10.20;;;;;;;32.10;10.68;100787.09;5032634;28;20060;-83
2022/03/04 09:59:54;;;;;;;11.52;10.35;;;;;;;32.00;10.93;100779.56;5035118;28;20056;-82
2022/03/04 10:02:25;;;;;;;12.18;10.85;;;;;;;32.36;10.63;100783.00;5031623;28;20072;-83
2022/03/04 10:05:00;;;;;;;11.60;10.30;;;;;;;32.66;10.49;100783.75;5023948;28;20057;-83
2022/03/04 10:07:28;;;;;;;12.35;10.90;;;;;;;33.21;9.91;100785.72;5037951;28;20417;-84
2022/03/04 10:09:57;;;;;;;12.43;10.80;;;;;;;33.52;9.43;100780.91;5034262;28;20057;-84
2022/03/04 10:12:24;;;;;;;10.98;9.88;;;;;;;33.34;9.64;100789.38;5036256;28;20053;-83
2022/03/04 10:15:01;;;;;;;10.27;9.15;;;;;;;34.17;9.42;100787.28;5031238;28;20061;-85
2022/03/04 10:17:31;;;;;;;11.10;10.10;;;;;;;34.66;8.84;100780.03;5039450;28;20145;-83
2022/03/04 10:20:00;;;;;;;11.68;10.43;;;;;;;34.79;9.44;100783.63;5030469;28;20056;-82
2022/03/04 10:22:37;;;;;;;11.55;10.35;;;;;;;34.70;9.19;100787.28;5038400;28;20049;-82
2022/03/04 10:25:23;;;;;;;10.55;9.55;;;;;;;34.82;8.98;100788.47;5037922;28;20057;-82
2022/03/04 10:27:52;;;;;;;11.65;10.45;;;;;;;34.23;9.24;100782.50;5035643;28;20429;-84
2022/03/04 10:30:30;;;;;;;11.82;10.63;;;;;;;34.95;9.00;100786.25;5037821;28;20047;-84
2022/03/04 10:33:07;;;;;;;;;;;;;;;34.74;9.25;100782.16;5038945;28;20053;-82
2022/03/04 10:35:34;;;;;;;11.45;10.35;;;;;;;34.89;8.33;100782.38;5039855;28;19921;-82
2022/03/04 10:38:04;;;;;;;11.20;10.18;;;;;;;34.83;8.56;100777.69;5037721;28;20053;-84
2022/03/04 10:40:33;;;;;;;11.35;10.07;;;;;;;35.34;8.92;100780.09;5038647;28;20049;-84
2022/03/04 10:43:01;;;;;;;;;;;;;;;35.01;9.05;100776.94;5039612;28;20058;-85
2022/03/04 10:45:30;;;;;;;12.60;11.30;;;;;;;35.38;8.73;100780.75;5033270;28;19932;-84
2022/03/04 10:47:59;;;;;;;12.27;10.82;;;;;;;35.23;8.64;100779.78;5035587;28;20053;-84
2022/03/04 10:50:32;;;;;;;12.23;11.10;;;;;;;35.50;8.50;100779.00;5048593;28;20148;-83
2022/03/04 10:53:03;;;;;;;13.15;11.85;;;;;;;35.55;8.89;100772.56;5051325;28;20516;-82
2022/03/04 10:55:36;;;;;;;13.13;11.82;;;;;;;35.72;8.98;100773.91;5039435;28;20061;-83
2022/03/04 10:58:06;;;;;;;13.30;11.95;;;;;;;35.60;8.85;100774.03;5039742;28;20452;-82
2022/03/04 11:00:35;;;;;;;13.23;11.88;;;;;;;36.02;9.29;100764.72;5039097;28;20046;-82
2022/03/04 11:03:07;;;;;;;13.60;12.38;;;;;;;36.11;9.36;100770.50;5052529;28;20052;-80
2022/03/04 11:05:36;;;;;;;13.65;12.25;;;;;;;35.92;9.13;100766.81;5052084;28;20064;-80
2022/03/04 11:08:05;;;;;;;13.13;11.68;;;;;;;36.06;8.29;100760.34;5041434;28;20057;-82
2022/03/04 11:10:32;;;;;;;;;;;;;;;35.27;9.05;100765.94;5042099;28;20049;-80
2022/03/04 11:12:59;;;;;;;13.68;12.38;;;;;;;36.01;9.05;100755.19;5041117;28;20683;-82
2022/03/04 11:15:27;;;;;;;14.20;12.90;;;;;;;35.72;8.88;100761.50;5040264;28;20060;-83
2022/03/04 11:17:54;;;;;;;12.98;11.68;;;;;;;35.87;8.68;100756.66;5039397;28;20479;-81
2022/03/04 11:20:22;;;;;;;13.83;12.43;;;;;;;35.99;8.72;100754.88;5057486;28;20049;-82